Birch Beach, Minnesota
Current Conditions -  °F | °C
As of 10:53 AM on Saturday 25 Oct 2014 (Local Time) from KBDE Reporting Station
Clear Clear  
Wind Chill: 42°   Ceiling: Unl
Heat Index: 48°   Visibility: 10mi
Dew Point: 30°   Wind: 14mph
Humidity: 50%   Direction: 290°WNW
Pressure: 29.94"   Gusts: 26mph
Location:  48.7484°N, 94.9438°W
Report Text: KBDE 251553Z AUTO 29012G23KT 10SM CLR 09/M01 A2994 RMK AO2 SLP145 T00891011 TSNO
Loading
Personal Weather Stations






























Interactive Weather Map
Tropical Storm Tracking
New forecast layout! Learn more

10-Day Weather Forecast

Advertisements
Track Severe Weather on mobile